sensor_id;sensor_type;location;lat;lon;timestamp;pressure;altitude;pressure_sealevel;temperature;humidity
79577;BME280;69045;48.136;11.386;2023-05-21T00:01:11;94951.81;;;17.99;62.80
79577;BME280;69045;48.136;11.386;2023-05-21T00:03:42;94950.75;;;18.05;62.53
79577;BME280;69045;48.136;11.386;2023-05-21T00:06:13;94942.00;;;18.05;62.00
79577;BME280;69045;48.136;11.386;2023-05-21T00:08:41;94951.03;;;18.04;61.99
79577;BME280;69045;48.136;11.386;2023-05-21T00:11:10;94938.84;;;18.03;62.35
79577;BME280;69045;48.136;11.386;2023-05-21T00:13:39;94944.38;;;18.06;62.36
79577;BME280;69045;48.136;11.386;2023-05-21T00:16:08;94934.31;;;18.03;62.35
79577;BME280;69045;48.136;11.386;2023-05-21T00:18:37;94936.72;;;17.99;62.13
79577;BME280;69045;48.136;11.386;2023-05-21T00:21:06;94936.47;;;17.96;62.39
79577;BME280;69045;48.136;11.386;2023-05-21T00:23:36;94934.66;;;17.86;62.63
79577;BME280;69045;48.136;11.386;2023-05-21T00:26:05;94932.53;;;17.88;62.61
79577;BME280;69045;48.136;11.386;2023-05-21T00:28:34;94930.13;;;17.92;62.18
79577;BME280;69045;48.136;11.386;2023-05-21T00:31:02;94926.97;;;17.90;62.39
79577;BME280;69045;48.136;11.386;2023-05-21T00:33:31;94932.00;;;17.86;62.03
79577;BME280;69045;48.136;11.386;2023-05-21T00:36:00;94927.53;;;17.77;62.52
79577;BME280;69045;48.136;11.386;2023-05-21T00:38:28;94919.84;;;17.70;62.85
79577;BME280;69045;48.136;11.386;2023-05-21T00:41:01;94919.59;;;17.66;62.69
79577;BME280;69045;48.136;11.386;2023-05-21T00:43:29;94925.94;;;17.65;62.75
79577;BME280;69045;48.136;11.386;2023-05-21T00:45:58;94928.09;;;17.63;62.75
79577;BME280;69045;48.136;11.386;2023-05-21T00:48:27;94921.22;;;17.62;62.49
79577;BME280;69045;48.136;11.386;2023-05-21T00:50:55;94919.59;;;17.66;62.63
79577;BME280;69045;48.136;11.386;2023-05-21T00:53:24;94919.06;;;17.69;62.51
79577;BME280;69045;48.136;11.386;2023-05-21T00:55:53;94918.28;;;17.69;62.58
79577;BME280;69045;48.136;11.386;2023-05-21T00:58:23;94916.69;;;17.73;62.44
79577;BME280;69045;48.136;11.386;2023-05-21T01:00:51;94922.25;;;17.77;62.10
79577;BME280;69045;48.136;11.386;2023-05-21T01:03:22;94925.16;;;17.75;62.21
79577;BME280;69045;48.136;11.386;2023-05-21T01:05:52;94921.44;;;17.76;62.37
79577;BME280;69045;48.136;11.386;2023-05-21T01:08:26;94925.41;;;17.73;62.31
79577;BME280;69045;48.136;11.386;2023-05-21T01:10:56;94919.59;;;17.71;62.43
79577;BME280;69045;48.136;11.386;2023-05-21T01:13:26;94920.66;;;17.70;62.29
79577;BME280;69045;48.136;11.386;2023-05-21T01:15:55;94917.22;;;17.70;62.29
79577;BME280;69045;48.136;11.386;2023-05-21T01:18:26;94913.50;;;17.66;62.14
79577;BME280;69045;48.136;11.386;2023-05-21T01:20:54;94908.47;;;17.64;62.03
79577;BME280;69045;48.136;11.386;2023-05-21T01:23:25;94921.22;;;17.57;62.12
79577;BME280;69045;48.136;11.386;2023-05-21T01:25:53;94917.78;;;17.57;62.44
79577;BME280;69045;48.136;11.386;2023-05-21T01:28:22;94914.34;;;17.56;61.89
79577;BME280;69045;48.136;11.386;2023-05-21T01:30:51;94909.56;;;17.53;61.99
79577;BME280;69045;48.136;11.386;2023-05-21T01:33:27;94908.25;;;17.51;61.62
79577;BME280;69045;48.136;11.386;2023-05-21T01:36:05;94904.03;;;17.44;62.35
79577;BME280;69045;48.136;11.386;2023-05-21T01:38:41;94905.09;;;17.38;62.23
79577;BME280;69045;48.136;11.386;2023-05-21T01:41:12;94910.16;;;17.35;62.18
79577;BME280;69045;48.136;11.386;2023-05-21T01:43:45;94903.03;;;17.30;62.93
79577;BME280;69045;48.136;11.386;2023-05-21T01:46:22;94904.09;;;17.29;62.62
79577;BME280;69045;48.136;11.386;2023-05-21T01:48:54;94900.66;;;17.29;62.67
79577;BME280;69045;48.136;11.386;2023-05-21T01:51:24;94899.56;;;17.35;62.04
79577;BME280;69045;48.136;11.386;2023-05-21T01:53:54;94902.47;;;17.33;61.91
79577;BME280;69045;48.136;11.386;2023-05-21T01:56:22;94899.59;;;17.30;62.30
79577;BME280;69045;48.136;11.386;2023-05-21T01:58:51;94896.44;;;17.17;62.19
79577;BME280;69045;48.136;11.386;2023-05-21T02:01:19;94893.53;;;17.14;62.00
79577;BME280;69045;48.136;11.386;2023-05-21T02:03:48;94904.63;;;17.11;62.22
79577;BME280;69045;48.136;11.386;2023-05-21T02:06:18;94896.19;;;17.09;62.48
79577;BME280;69045;48.136;11.386;2023-05-21T02:08:46;94896.19;;;17.09;62.38
79577;BME280;69045;48.136;11.386;2023-05-21T02:11:16;94887.47;;;17.08;61.93
79577;BME280;69045;48.136;11.386;2023-05-21T02:13:44;94895.13;;;17.10;61.92
79577;BME280;69045;48.136;11.386;2023-05-21T02:16:12;94893.53;;;17.04;62.15
79577;BME280;69045;48.136;11.386;2023-05-21T02:18:41;94900.44;;;16.95;62.10
79577;BME280;69045;48.136;11.386;2023-05-21T02:21:10;94900.72;;;16.88;62.33
79577;BME280;69045;48.136;11.386;2023-05-21T02:23:39;94898.31;;;16.86;62.12
79577;BME280;69045;48.136;11.386;2023-05-21T02:26:09;94895.94;;;16.85;62.27
79577;BME280;69045;48.136;11.386;2023-05-21T02:28:39;94886.97;;;16.76;62.30
79577;BME280;69045;48.136;11.386;2023-05-21T02:31:07;94893.03;;;16.76;62.03
79577;BME280;69045;48.136;11.386;2023-05-21T02:33:38;94894.38;;;16.74;62.09
79577;BME280;69045;48.136;11.386;2023-05-21T02:36:07;94893.59;;;16.73;62.04
79577;BME280;69045;48.136;11.386;2023-05-21T02:38:39;94896.75;;;16.75;61.87
79577;BME280;69045;48.136;11.386;2023-05-21T02:41:10;94899.41;;;16.80;61.58
79577;BME280;69045;48.136;11.386;2023-05-21T02:43:42;94887.19;;;16.79;61.66
79577;BME280;69045;48.136;11.386;2023-05-21T02:46:10;94889.34;;;16.82;61.45
79577;BME280;69045;48.136;11.386;2023-05-21T02:48:39;94895.69;;;16.81;61.15
79577;BME280;69045;48.136;11.386;2023-05-21T02:51:07;94889.59;;;16.81;61.91
79577;BME280;69045;48.136;11.386;2023-05-21T02:53:37;94891.97;;;16.77;61.48
79577;BME280;69045;48.136;11.386;2023-05-21T02:56:06;94883.75;;;16.79;61.20
79577;BME280;69045;48.136;11.386;2023-05-21T02:58:36;94892.78;;;16.83;61.14
79577;BME280;69045;48.136;11.386;2023-05-21T03:01:05;94892.22;;;16.86;60.69
79577;BME280;69045;48.136;11.386;2023-05-21T03:03:34;94894.63;;;16.87;60.56
79577;BME280;69045;48.136;11.386;2023-05-21T03:06:03;94888.53;;;16.87;60.98
79577;BME280;69045;48.136;11.386;2023-05-21T03:08:36;94884.56;;;16.89;60.26
79577;BME280;69045;48.136;11.386;2023-05-21T03:11:04;94888.28;;;16.88;59.96
79577;BME280;69045;48.136;11.386;2023-05-21T03:13:32;94893.28;;;16.85;60.21
79577;BME280;69045;48.136;11.386;2023-05-21T03:16:03;94885.09;;;16.81;60.15
79577;BME280;69045;48.136;11.386;2023-05-21T03:18:33;94881.66;;;16.71;60.00
79577;BME280;69045;48.136;11.386;2023-05-21T03:21:01;94877.44;;;16.70;60.20
79577;BME280;69045;48.136;11.386;2023-05-21T03:23:31;94877.41;;;16.64;60.52
79577;BME280;69045;48.136;11.386;2023-05-21T03:26:00;94881.91;;;16.49;60.35
79577;BME280;69045;48.136;11.386;2023-05-21T03:28:29;94885.06;;;16.41;61.23
79577;BME280;69045;48.136;11.386;2023-05-21T03:30:58;94890.34;;;16.30;61.62
79577;BME280;69045;48.136;11.386;2023-05-21T03:34:03;94887.72;;;16.35;60.71
79577;BME280;69045;48.136;11.386;2023-05-21T03:36:31;94881.34;;;16.31;60.28
79577;BME280;69045;48.136;11.386;2023-05-21T03:39:01;94885.03;;;16.25;60.30
79577;BME280;69045;48.136;11.386;2023-05-21T03:41:32;94886.09;;;16.24;60.60
79577;BME280;69045;48.136;11.386;2023-05-21T03:44:08;94893.47;;;16.12;61.13
79577;BME280;69045;48.136;11.386;2023-05-21T03:46:46;94888.47;;;16.16;60.84
79577;BME280;69045;48.136;11.386;2023-05-21T03:49:21;94889.25;;;16.06;61.01
79577;BME280;69045;48.136;11.386;2023-05-21T03:51:52;94890.03;;;16.06;61.08
79577;BME280;69045;48.136;11.386;2023-05-21T03:54:21;94887.13;;;16.03;61.15
79577;BME280;69045;48.136;11.386;2023-05-21T03:56:53;94892.13;;;16.04;60.95
79577;BME280;69045;48.136;11.386;2023-05-21T03:59:23;94881.56;;;16.04;60.77
79577;BME280;69045;48.136;11.386;2023-05-21T04:01:52;94886.88;;;15.99;60.86
79577;BME280;69045;48.136;11.386;2023-05-21T04:04:22;94885.00;;;15.95;61.21
79577;BME280;69045;48.136;11.386;2023-05-21T04:06:50;94890.28;;;15.95;61.52
79577;BME280;69045;48.136;11.386;2023-05-21T04:09:21;94889.47;;;15.94;61.05
79577;BME280;69045;48.136;11.386;2023-05-21T04:11:51;94892.38;;;15.88;60.96
79577;BME280;69045;48.136;11.386;2023-05-21T04:14:19;94882.31;;;15.84;60.96
79577;BME280;69045;48.136;11.386;2023-05-21T04:16:47;94882.59;;;15.88;60.61
79577;BME280;69045;48.136;11.386;2023-05-21T04:19:21;94887.63;;;15.90;60.96
79577;BME280;69045;48.136;11.386;2023-05-21T04:21:49;94882.84;;;15.92;60.49
79577;BME280;69045;48.136;11.386;2023-05-21T04:24:18;94884.75;;;16.01;60.38
79577;BME280;69045;48.136;11.386;2023-05-21T04:26:57;94889.75;;;16.03;60.14
79577;BME280;69045;48.136;11.386;2023-05-21T04:29:29;94898.50;;;16.08;59.84
79577;BME280;69045;48.136;11.386;2023-05-21T04:31:58;94885.31;;;16.14;60.28
79577;BME280;69045;48.136;11.386;2023-05-21T04:34:29;94897.19;;;16.16;60.00
79577;BME280;69045;48.136;11.386;2023-05-21T04:37:00;94890.09;;;16.27;59.58
79577;BME280;69045;48.136;11.386;2023-05-21T04:39:30;94892.19;;;16.35;60.08
79577;BME280;69045;48.136;11.386;2023-05-21T04:42:00;94888.78;;;16.40;58.72
79577;BME280;69045;48.136;11.386;2023-05-21T04:44:29;94900.69;;;16.47;58.85
79577;BME280;69045;48.136;11.386;2023-05-21T04:46:58;94909.41;;;16.58;59.23
79577;BME280;69045;48.136;11.386;2023-05-21T04:49:29;94912.06;;;16.68;59.11
79577;BME280;69045;48.136;11.386;2023-05-21T04:52:01;94913.09;;;16.52;58.64
79577;BME280;69045;48.136;11.386;2023-05-21T04:54:29;94907.84;;;16.67;58.32
79577;BME280;69045;48.136;11.386;2023-05-21T04:56:58;94910.47;;;16.72;57.79
79577;BME280;69045;48.136;11.386;2023-05-21T04:59:26;94908.91;;;16.76;57.45
79577;BME280;69045;48.136;11.386;2023-05-21T05:01:55;94906.28;;;16.81;57.40
79577;BME280;69045;48.136;11.386;2023-05-21T05:04:23;94916.59;;;16.88;57.67
79577;BME280;69045;48.136;11.386;2023-05-21T05:06:53;94900.97;;;16.97;57.18
79577;BME280;69045;48.136;11.386;2023-05-21T05:09:22;94903.88;;;17.00;56.99
79577;BME280;69045;48.136;11.386;2023-05-21T05:11:51;94898.03;;;17.08;56.53
79577;BME280;69045;48.136;11.386;2023-05-21T05:14:20;94898.28;;;17.12;56.17
79577;BME280;69045;48.136;11.386;2023-05-21T05:16:49;94896.97;;;17.09;56.90
79577;BME280;69045;48.136;11.386;2023-05-21T05:19:18;94901.47;;;16.99;56.87
79577;BME280;69045;48.136;11.386;2023-05-21T05:21:47;94903.59;;;17.02;57.02
79577;BME280;69045;48.136;11.386;2023-05-21T05:24:16;94894.84;;;17.06;56.60
79577;BME280;69045;48.136;11.386;2023-05-21T05:26:46;94901.47;;;17.09;56.21
79577;BME280;69045;48.136;11.386;2023-05-21T05:29:15;94907.84;;;17.08;55.52
79577;BME280;69045;48.136;11.386;2023-05-21T05:31:44;94902.00;;;17.21;55.87
79577;BME280;69045;48.136;11.386;2023-05-21T05:34:14;94906.44;;;17.41;55.93
79577;BME280;69045;48.136;11.386;2023-05-21T05:36:42;94906.38;;;17.56;55.61
79577;BME280;69045;48.136;11.386;2023-05-21T05:39:11;94906.88;;;17.68;54.51
79577;BME280;69045;48.136;11.386;2023-05-21T05:41:41;94906.09;;;17.73;55.43
79577;BME280;69045;48.136;11.386;2023-05-21T05:44:09;94906.56;;;17.85;54.93
79577;BME280;69045;48.136;11.386;2023-05-21T05:46:38;94901.97;;;18.01;54.19
79577;BME280;69045;48.136;11.386;2023-05-21T05:49:07;94902.72;;;18.12;53.69
79577;BME280;69045;48.136;11.386;2023-05-21T05:51:35;94904.22;;;18.28;53.03
79577;BME280;69045;48.136;11.386;2023-05-21T05:54:04;94912.16;;;18.28;52.41
79577;BME280;69045;48.136;11.386;2023-05-21T05:56:34;94912.97;;;18.28;52.37
79577;BME280;69045;48.136;11.386;2023-05-21T05:59:05;94916.94;;;18.31;52.64
79577;BME280;69045;48.136;11.386;2023-05-21T06:01:36;94915.31;;;18.35;53.17
79577;BME280;69045;48.136;11.386;2023-05-21T06:04:05;94916.38;;;18.34;53.18
79577;BME280;69045;48.136;11.386;2023-05-21T06:06:33;94915.31;;;18.35;53.21
79577;BME280;69045;48.136;11.386;2023-05-21T06:09:02;94911.03;;;18.39;53.93
79577;BME280;69045;48.136;11.386;2023-05-21T06:11:30;94907.56;;;18.44;53.97
79577;BME280;69045;48.136;11.386;2023-05-21T06:13:59;94911.41;;;18.62;53.45
79577;BME280;69045;48.136;11.386;2023-05-21T06:16:29;94918.00;;;18.69;52.55
79577;BME280;69045;48.136;11.386;2023-05-21T06:18:58;94921.41;;;18.80;52.23
79577;BME280;69045;48.136;11.386;2023-05-21T06:21:27;94914.97;;;18.86;51.91
79577;BME280;69045;48.136;11.386;2023-05-21T06:23:55;94915.28;;;18.79;52.23
79577;BME280;69045;48.136;11.386;2023-05-21T06:26:24;94913.69;;;18.84;52.39
79577;BME280;69045;48.136;11.386;2023-05-21T06:28:53;94912.34;;;18.81;52.62
79577;BME280;69045;48.136;11.386;2023-05-21T06:31:22;94916.41;;;18.73;52.77
79577;BME280;69045;48.136;11.386;2023-05-21T06:33:53;94910.28;;;18.78;52.33
79577;BME280;69045;48.136;11.386;2023-05-21T06:36:21;94909.63;;;18.91;52.64
79577;BME280;69045;48.136;11.386;2023-05-21T06:38:52;94917.00;;;18.99;51.85
79577;BME280;69045;48.136;11.386;2023-05-21T06:41:20;94919.31;;;19.06;51.57
79577;BME280;69045;48.136;11.386;2023-05-21T06:43:55;94919.59;;;19.04;52.34
79577;BME280;69045;48.136;11.386;2023-05-21T06:46:41;94918.72;;;19.14;51.46
79577;BME280;69045;48.136;11.386;2023-05-21T06:49:12;94911.84;;;19.37;50.90
79577;BME280;69045;48.136;11.386;2023-05-21T06:51:42;94918.81;;;19.57;50.70
79577;BME280;69045;48.136;11.386;2023-05-21T06:54:12;94922.22;;;19.62;50.27
79577;BME280;69045;48.136;11.386;2023-05-21T06:56:41;94918.59;;;19.77;50.21
79577;BME280;69045;48.136;11.386;2023-05-21T06:59:09;94918.16;;;19.94;50.63
79577;BME280;69045;48.136;11.386;2023-05-21T07:01:38;94927.38;;;20.21;50.26
79577;BME280;69045;48.136;11.386;2023-05-21T07:04:10;94928.56;;;20.52;49.34
79577;BME280;69045;48.136;11.386;2023-05-21T07:06:41;94931.00;;;20.86;49.45
79577;BME280;69045;48.136;11.386;2023-05-21T07:09:10;94929.56;;;21.08;47.43
79577;BME280;69045;48.136;11.386;2023-05-21T07:11:39;94939.34;;;21.12;45.59
79577;BME280;69045;48.136;11.386;2023-05-21T07:14:09;94923.50;;;21.21;46.65
79577;BME280;69045;48.136;11.386;2023-05-21T07:16:37;94928.19;;;21.43;47.33
79577;BME280;69045;48.136;11.386;2023-05-21T07:19:07;94933.44;;;21.48;44.95
79577;BME280;69045;48.136;11.386;2023-05-21T07:21:35;94925.31;;;21.39;46.02
79577;BME280;69045;48.136;11.386;2023-05-21T07:24:07;94919.34;;;21.61;46.33
79577;BME280;69045;48.136;11.386;2023-05-21T07:26:38;94921.41;;;21.78;45.55
79577;BME280;69045;48.136;11.386;2023-05-21T07:29:07;94923.06;;;22.01;44.96
79577;BME280;69045;48.136;11.386;2023-05-21T07:31:35;94919.09;;;22.26;44.48
79577;BME280;69045;48.136;11.386;2023-05-21T07:34:06;94922.03;;;22.39;44.52
79577;BME280;69045;48.136;11.386;2023-05-21T07:36:35;94929.22;;;22.52;43.18
79577;BME280;69045;48.136;11.386;2023-05-21T07:39:03;94918.19;;;22.67;43.74
79577;BME280;69045;48.136;11.386;2023-05-21T07:41:34;94918.72;;;22.92;42.17
79577;BME280;69045;48.136;11.386;2023-05-21T07:44:05;94920.03;;;23.03;42.13
79577;BME280;69045;48.136;11.386;2023-05-21T07:46:39;94919.91;;;23.30;42.71
79577;BME280;69045;48.136;11.386;2023-05-21T07:49:08;94909.50;;;23.60;40.88
79577;BME280;69045;48.136;11.386;2023-05-21T07:51:44;94921.66;;;23.66;40.22
79577;BME280;69045;48.136;11.386;2023-05-21T07:54:14;94926.94;;;23.88;40.06
79577;BME280;69045;48.136;11.386;2023-05-21T07:56:45;94927.28;;;23.95;39.03
79577;BME280;69045;48.136;11.386;2023-05-21T07:59:28;94924.25;;;23.88;37.51
79577;BME280;69045;48.136;11.386;2023-05-21T08:01:56;94918.56;;;23.81;37.87
79577;BME280;69045;48.136;11.386;2023-05-21T08:04:24;94919.22;;;23.87;37.16
79577;BME280;69045;48.136;11.386;2023-05-21T08:06:53;94920.44;;;23.72;38.32
79577;BME280;69045;48.136;11.386;2023-05-21T08:09:22;94927.75;;;23.97;38.31
79577;BME280;69045;48.136;11.386;2023-05-21T08:11:52;94933.81;;;24.20;36.66
79577;BME280;69045;48.136;11.386;2023-05-21T08:14:21;94934.72;;;24.16;35.81
79577;BME280;69045;48.136;11.386;2023-05-21T08:16:50;94941.84;;;24.20;36.48
79577;BME280;69045;48.136;11.386;2023-05-21T08:19:18;94940.63;;;24.44;36.15
79577;BME280;69045;48.136;11.386;2023-05-21T08:21:47;94945.69;;;24.63;36.10
79577;BME280;69045;48.136;11.386;2023-05-21T08:24:19;94946.47;;;24.46;34.95
79577;BME280;69045;48.136;11.386;2023-05-21T08:26:48;94946.47;;;23.97;36.12
79577;BME280;69045;48.136;11.386;2023-05-21T08:29:19;94948.00;;;23.81;36.53
79577;BME280;69045;48.136;11.386;2023-05-21T08:31:47;94934.06;;;24.02;37.62
79577;BME280;69045;48.136;11.386;2023-05-21T08:34:16;94942.88;;;24.11;35.66
79577;BME280;69045;48.136;11.386;2023-05-21T08:36:52;94949.34;;;24.01;36.24
79577;BME280;69045;48.136;11.386;2023-05-21T08:39:40;94937.31;;;23.90;36.06
79577;BME280;69045;48.136;11.386;2023-05-21T08:42:21;94938.59;;;23.92;35.86
79577;BME280;69045;48.136;11.386;2023-05-21T08:45:07;94941.97;;;24.07;36.92
79577;BME280;69045;48.136;11.386;2023-05-21T08:47:35;94949.88;;;24.29;36.74
79577;BME280;69045;48.136;11.386;2023-05-21T08:50:08;94946.72;;;24.18;35.73
79577;BME280;69045;48.136;11.386;2023-05-21T08:52:37;94946.91;;;23.82;36.67
79577;BME280;69045;48.136;11.386;2023-05-21T08:55:07;94948.44;;;23.75;36.78
79577;BME280;69045;48.136;11.386;2023-05-21T08:57:41;94949.63;;;23.60;36.96
79577;BME280;69045;48.136;11.386;2023-05-21T09:00:15;94954.16;;;23.90;37.37
79577;BME280;69045;48.136;11.386;2023-05-21T09:02:44;94958.16;;;24.10;37.48
79577;BME280;69045;48.136;11.386;2023-05-21T09:05:17;94956.31;;;24.19;37.02
79577;BME280;69045;48.136;11.386;2023-05-21T09:08:00;94959.09;;;24.45;38.38
79577;BME280;69045;48.136;11.386;2023-05-21T09:10:43;94957.50;;;24.62;35.72
79577;BME280;69045;48.136;11.386;2023-05-21T09:13:16;94959.72;;;24.77;36.23
79577;BME280;69045;48.136;11.386;2023-05-21T09:15:47;94965.56;;;24.88;35.61
79577;BME280;69045;48.136;11.386;2023-05-21T09:18:18;94966.50;;;25.00;36.31
79577;BME280;69045;48.136;11.386;2023-05-21T09:20:50;94965.56;;;24.70;36.76
79577;BME280;69045;48.136;11.386;2023-05-21T09:23:20;94966.19;;;24.76;36.74
79577;BME280;69045;48.136;11.386;2023-05-21T09:25:49;94962.88;;;24.79;36.52
79577;BME280;69045;48.136;11.386;2023-05-21T09:28:24;94966.34;;;24.80;37.39
79577;BME280;69045;48.136;11.386;2023-05-21T09:30:54;94965.72;;;24.83;37.63
79577;BME280;69045;48.136;11.386;2023-05-21T09:33:27;94969.66;;;24.76;37.38
79577;BME280;69045;48.136;11.386;2023-05-21T09:35:56;94971.56;;;24.67;38.86
79577;BME280;69045;48.136;11.386;2023-05-21T09:38:25;94967.63;;;24.16;40.15
79577;BME280;69045;48.136;11.386;2023-05-21T09:40:56;94968.19;;;24.44;39.04
79577;BME280;69045;48.136;11.386;2023-05-21T09:43:25;94964.44;;;24.63;39.26
79577;BME280;69045;48.136;11.386;2023-05-21T09:45:56;94964.16;;;24.73;39.25
79577;BME280;69045;48.136;11.386;2023-05-21T09:48:32;94952.47;;;24.95;38.75
79577;BME280;69045;48.136;11.386;2023-05-21T09:51:08;94963.50;;;25.28;39.13
79577;BME280;69045;48.136;11.386;2023-05-21T09:53:42;94959.97;;;25.53;38.95
79577;BME280;69045;48.136;11.386;2023-05-21T09:56:10;94958.88;;;25.54;38.02
79577;BME280;69045;48.136;11.386;2023-05-21T09:58:39;94956.44;;;25.79;37.61
79577;BME280;69045;48.136;11.386;2023-05-21T10:01:09;94953.03;;;25.99;37.82
79577;BME280;69045;48.136;11.386;2023-05-21T10:03:38;94955.38;;;26.09;36.73
79577;BME280;69045;48.136;11.386;2023-05-21T10:06:07;94952.50;;;26.14;36.11
79577;BME280;69045;48.136;11.386;2023-05-21T10:08:43;94958.50;;;26.50;36.70
79577;BME280;69045;48.136;11.386;2023-05-21T10:11:13;94961.53;;;26.69;36.01
79577;BME280;69045;48.136;11.386;2023-05-21T10:13:46;94950.81;;;26.60;35.02
79577;BME280;69045;48.136;11.386;2023-05-21T10:16:18;94950.44;;;26.71;34.57
79577;BME280;69045;48.136;11.386;2023-05-21T10:18:46;94946.03;;;26.87;35.43
79577;BME280;69045;48.136;11.386;2023-05-21T10:21:17;94950.44;;;27.12;34.17
79577;BME280;69045;48.136;11.386;2023-05-21T10:23:45;94940.84;;;27.24;32.93
79577;BME280;69045;48.136;11.386;2023-05-21T10:26:15;94948.03;;;27.32;32.01
79577;BME280;69045;48.136;11.386;2023-05-21T10:28:43;94944.38;;;27.15;32.92
79577;BME280;69045;48.136;11.386;2023-05-21T10:31:12;94946.09;;;27.20;33.34
79577;BME280;69045;48.136;11.386;2023-05-21T10:33:43;94937.97;;;27.41;34.59
79577;BME280;69045;48.136;11.386;2023-05-21T10:36:15;94936.50;;;27.31;34.55
79577;BME280;69045;48.136;11.386;2023-05-21T10:38:44;94932.38;;;27.46;33.18
79577;BME280;69045;48.136;11.386;2023-05-21T10:41:16;94927.34;;;27.57;31.88
79577;BME280;69045;48.136;11.386;2023-05-21T10:43:55;94932.41;;;27.58;31.46
79577;BME280;69045;48.136;11.386;2023-05-21T10:46:51;94931.19;;;27.23;31.93
79577;BME280;69045;48.136;11.386;2023-05-21T10:52:43;94935.31;;;27.20;33.28
79577;BME280;69045;48.136;11.386;2023-05-21T10:55:33;94930.88;;;27.36;32.77
79577;BME280;69045;48.136;11.386;2023-05-21T10:58:34;94929.00;;;27.49;32.13
79577;BME280;69045;48.136;11.386;2023-05-21T11:01:07;94922.75;;;27.57;33.12
79577;BME280;69045;48.136;11.386;2023-05-21T11:03:35;94923.72;;;27.86;31.58
79577;BME280;69045;48.136;11.386;2023-05-21T11:06:04;94923.59;;;28.07;30.31
79577;BME280;69045;48.136;11.386;2023-05-21T11:08:35;94914.41;;;28.32;29.86
79577;BME280;69045;48.136;11.386;2023-05-21T11:11:04;94916.91;;;28.65;28.95
79577;BME280;69045;48.136;11.386;2023-05-21T11:13:47;94916.41;;;28.88;28.71
79577;BME280;69045;48.136;11.386;2023-05-21T11:16:16;94917.00;;;29.09;30.48
79577;BME280;69045;48.136;11.386;2023-05-21T11:19:00;94925.66;;;29.15;28.03
79577;BME280;69045;48.136;11.386;2023-05-21T11:21:33;94930.75;;;29.04;27.31
79577;BME280;69045;48.136;11.386;2023-05-21T11:24:06;94923.34;;;28.89;27.62
79577;BME280;69045;48.136;11.386;2023-05-21T11:26:59;94923.72;;;28.87;27.20
79577;BME280;69045;48.136;11.386;2023-05-21T11:29:34;94921.50;;;29.05;29.20
79577;BME280;69045;48.136;11.386;2023-05-21T11:32:08;94927.75;;;29.21;27.42
79577;BME280;69045;48.136;11.386;2023-05-21T11:34:39;94922.38;;;29.37;27.95
79577;BME280;69045;48.136;11.386;2023-05-21T11:37:26;94921.88;;;29.47;26.19
79577;BME280;69045;48.136;11.386;2023-05-21T11:40:18;94918.78;;;29.61;26.77
79577;BME280;69045;48.136;11.386;2023-05-21T11:42:49;94918.25;;;29.55;26.23
79577;BME280;69045;48.136;11.386;2023-05-21T11:45:20;94916.00;;;29.57;28.07
79577;BME280;69045;48.136;11.386;2023-05-21T11:47:50;94918.25;;;29.55;27.11
79577;BME280;69045;48.136;11.386;2023-05-21T11:50:19;94919.72;;;29.53;27.48
79577;BME280;69045;48.136;11.386;2023-05-21T11:52:48;94926.22;;;29.36;27.02
79577;BME280;69045;48.136;11.386;2023-05-21T11:55:23;94924.31;;;29.08;27.47
79577;BME280;69045;48.136;11.386;2023-05-21T11:57:52;94922.47;;;28.84;28.30
79577;BME280;69045;48.136;11.386;2023-05-21T12:00:23;94925.75;;;28.78;28.46
79577;BME280;69045;48.136;11.386;2023-05-21T12:02:51;94919.75;;;28.84;27.44
79577;BME280;69045;48.136;11.386;2023-05-21T12:05:43;94920.53;;;28.85;26.50
79577;BME280;69045;48.136;11.386;2023-05-21T12:08:11;94923.75;;;28.75;26.86
79577;BME280;69045;48.136;11.386;2023-05-21T12:10:41;94916.97;;;28.81;27.13
79577;BME280;69045;48.136;11.386;2023-05-21T12:13:13;94917.75;;;28.81;26.24
79577;BME280;69045;48.136;11.386;2023-05-21T12:15:41;94918.13;;;28.80;26.76
79577;BME280;69045;48.136;11.386;2023-05-21T12:18:11;94918.59;;;28.70;24.89
79577;BME280;69045;48.136;11.386;2023-05-21T12:20:43;94913.03;;;28.78;24.93
79577;BME280;69045;48.136;11.386;2023-05-21T12:23:18;94908.66;;;28.86;26.33
79577;BME280;69045;48.136;11.386;2023-05-21T12:25:48;94909.19;;;28.92;27.97
79577;BME280;69045;48.136;11.386;2023-05-21T12:28:16;94912.28;;;29.06;26.20
79577;BME280;69045;48.136;11.386;2023-05-21T12:30:45;94907.03;;;29.25;27.23
79577;BME280;69045;48.136;11.386;2023-05-21T12:33:13;94901.94;;;29.52;27.31
79577;BME280;69045;48.136;11.386;2023-05-21T12:35:44;94899.44;;;29.59;28.18
79577;BME280;69045;48.136;11.386;2023-05-21T12:38:16;94899.88;;;29.61;29.03
79577;BME280;69045;48.136;11.386;2023-05-21T12:40:45;94898.28;;;29.60;27.61
79577;BME280;69045;48.136;11.386;2023-05-21T12:43:17;94895.09;;;29.70;27.72
79577;BME280;69045;48.136;11.386;2023-05-21T12:45:46;94892.13;;;29.91;28.28
79577;BME280;69045;48.136;11.386;2023-05-21T12:48:14;94895.06;;;30.02;28.50
79577;BME280;69045;48.136;11.386;2023-05-21T12:50:42;94893.31;;;29.94;29.27
79577;BME280;69045;48.136;11.386;2023-05-21T12:53:11;94898.91;;;29.85;28.67
79577;BME280;69045;48.136;11.386;2023-05-21T12:55:39;94899.34;;;29.71;29.13
79577;BME280;69045;48.136;11.386;2023-05-21T12:58:12;94896.28;;;29.73;29.91
79577;BME280;69045;48.136;11.386;2023-05-21T13:00:42;94895.50;;;29.72;29.22
79577;BME280;69045;48.136;11.386;2023-05-21T13:03:11;94889.59;;;29.67;29.74
79577;BME280;69045;48.136;11.386;2023-05-21T13:05:40;94894.72;;;29.72;29.53
79577;BME280;69045;48.136;11.386;2023-05-21T13:08:09;94893.41;;;29.66;29.45
79577;BME280;69045;48.136;11.386;2023-05-21T13:10:40;94894.31;;;29.70;30.42
79577;BME280;69045;48.136;11.386;2023-05-21T13:13:08;94889.75;;;29.74;29.35